| time (UTC) | temp F | wind direction | speed MPH | gust MPH | rain 1hr in | rain 24hr in | rain mn in | humidity % | barometer mb |
| 20260508033441 | 41 | 189 | 0.0 | 1.0 | 0.00 | 0.08 | 0.08 | 86 | 1013.5 |
| 20260508032938 | 40 | 189 | 0.0 | 2.0 | 0.00 | 0.08 | 0.08 | 84 | 1013.5 |
| 20260508032436 | 41 | 188 | 0.0 | 0.0 | 0.00 | 0.08 | 0.08 | 85 | 1013.4 |
| 20260508031932 | 41 | 189 | 0.0 | 0.0 | 0.00 | 0.08 | 0.08 | 86 | 1013.4 |
| 20260508031430 | 41 | 188 | 0.0 | 1.0 | 0.00 | 0.08 | 0.08 | 85 | 1013.4 |
| 20260508030925 | 41 | 190 | 1.0 | 1.0 | 0.00 | 0.08 | 0.08 | 83 | 1013.3 |
| 20260508030423 | 41 | 189 | 1.0 | 1.0 | 0.00 | 0.08 | 0.08 | 84 | 1013.3 |
| 20260508025920 | 42 | 188 | 1.0 | 1.0 | 0.00 | 0.08 | 0.08 | 80 | 1013.3 |
| 20260508025416 | 42 | 190 | 1.0 | 1.0 | 0.00 | 0.08 | 0.08 | 80 | 1013.1 |
| 20260508024913 | 42 | 189 | 0.0 | 2.0 | 0.00 | 0.08 | 0.08 | 82 | 1013.2 |
| 20260508024410 | 42 | 189 | 0.0 | 1.0 | 0.00 | 0.08 | 0.08 | 82 | 1013.2 |
| 20260508023906 | 43 | 191 | 0.0 | 2.0 | 0.00 | 0.08 | 0.08 | 80 | 1013.2 |
| 20260508023403 | 43 | 191 | 1.0 | 1.0 | 0.00 | 0.08 | 0.08 | 76 | 1013.2 |
| 20260508022900 | 43 | 189 | 1.0 | 2.0 | 0.00 | 0.08 | 0.08 | 79 | 1012.9 |
| 20260508022356 | 42 | 191 | 0.0 | 1.0 | 0.00 | 0.08 | 0.08 | 77 | 1012.8 |
| 20260508021853 | 43 | 191 | 1.0 | 1.0 | 0.00 | 0.08 | 0.08 | 78 | 1012.9 |
| 20260508021349 | 43 | 191 | 0.0 | 1.0 | 0.00 | 0.08 | 0.08 | 77 | 1013.0 |
| 20260508020845 | 43 | 194 | 1.0 | 2.0 | 0.00 | 0.08 | 0.08 | 80 | 1012.8 |
| 20260508020343 | 44 | 192 | 1.0 | 2.0 | 0.00 | 0.08 | 0.08 | 83 | 1012.6 |
| 20260508015840 | 44 | 190 | 1.0 | 1.0 | 0.00 | 0.08 | 0.08 | 80 | 1012.6 |
| 20260508015338 | 44 | 188 | 1.0 | 1.0 | 0.00 | 0.08 | 0.08 | 77 | 1012.7 |
| 20260508014834 | 45 | 184 | 1.0 | 1.0 | 0.00 | 0.08 | 0.08 | 72 | 1012.6 |
| 20260508014331 | 45 | 184 | 0.0 | 1.0 | 0.00 | 0.08 | 0.08 | 76 | 1012.7 |
| 20260508013826 | 45 | 183 | 0.0 | 1.0 | 0.00 | 0.08 | 0.08 | 76 | 1012.5 |
| 20260508013323 | 46 | 182 | 1.0 | 2.0 | 0.00 | 0.08 | 0.08 | 68 | 1012.5 |
| 20260508012820 | 46 | 184 | 1.0 | 1.0 | 0.00 | 0.08 | 0.08 | 68 | 1012.2 |
| 20260508012317 | 46 | 184 | 0.0 | 1.0 | 0.00 | 0.08 | 0.08 | 71 | 1012.5 |
| 20260508011815 | 47 | 182 | 1.0 | 2.0 | 0.00 | 0.08 | 0.08 | 68 | 1012.1 |
| 20260508011312 | 47 | 190 | 1.0 | 2.0 | 0.00 | 0.08 | 0.08 | 71 | 1012.1 |
| 20260508010809 | 47 | 192 | 0.0 | 2.0 | 0.00 | 0.08 | 0.08 | 69 | 1012.1 |
| 20260508010307 | 48 | 185 | 1.0 | 1.0 | 0.00 | 0.08 | 0.08 | 69 | 1012.2 |
| 20260508005804 | 48 | 186 | 1.0 | 1.0 | 0.00 | 0.08 | 0.08 | 68 | 1012.1 |
| 20260508005301 | 48 | 184 | 0.0 | 0.0 | 0.00 | 0.08 | 0.08 | 64 | 1012.1 |
| 20260508004756 | 49 | 184 | 0.0 | 0.0 | 0.00 | 0.08 | 0.08 | 69 | 1011.9 |
| 20260508004253 | 49 | 184 | 0.0 | 2.0 | 0.00 | 0.08 | 0.08 | 62 | 1011.9 |
| 20260508003749 | 49 | 185 | 0.0 | 1.0 | 0.00 | 0.08 | 0.08 | 64 | 1011.8 |
| 20260508003247 | 50 | 182 | 0.0 | 1.0 | 0.00 | 0.08 | 0.08 | 59 | 1011.7 |
| 20260508002743 | 50 | 193 | 2.0 | 3.0 | 0.00 | 0.08 | 0.08 | 59 | 1011.5 |
| 20260508002241 | 50 | 211 | 2.0 | 3.0 | 0.00 | 0.08 | 0.08 | 60 | 1011.7 |
| 20260508001736 | 50 | 180 | 0.0 | 2.0 | 0.00 | 0.08 | 0.08 | 60 | 1011.4 |
| 20260508001232 | 51 | 181 | 0.0 | 0.0 | 0.00 | 0.08 | 0.08 | 65 | 1011.3 |
| 20260508000729 | 51 | 190 | 1.0 | 2.0 | 0.00 | 0.08 | 0.08 | 60 | 1011.3 |
| 20260508000227 | 52 | 176 | 0.0 | 2.0 | 0.00 | 0.08 | 0.08 | 58 | 1011.1 |
| 20260507235722 | 52 | 195 | 2.0 | 2.0 | 0.00 | 0.08 | 0.08 | 57 | 1011.2 |
| 20260507235220 | 52 | 180 | 1.0 | 2.0 | 0.00 | 0.08 | 0.08 | 58 | 1011.4 |
| 20260507234717 | 53 | 201 | 2.0 | 7.0 | 0.00 | 0.08 | 0.08 | 56 | 1011.1 |
| 20260507234213 | 53 | 189 | 1.0 | 2.0 | 0.00 | 0.08 | 0.08 | 56 | 1011.2 |
| 20260507233710 | 53 | 177 | 1.0 | 2.0 | 0.00 | 0.08 | 0.08 | 55 | 1011.0 |
| 20260507233208 | 53 | 210 | 3.0 | 6.0 | 0.00 | 0.08 | 0.08 | 56 | 1011.1 |
| 20260507232705 | 53 | 181 | 2.0 | 2.0 | 0.00 | 0.08 | 0.08 | 57 | 1011.2 |
| 20260507232202 | 53 | 183 | 0.0 | 1.0 | 0.00 | 0.08 | 0.08 | 57 | 1010.9 |
| 20260507231658 | 53 | 193 | 2.0 | 5.0 | 0.00 | 0.08 | 0.08 | 55 | 1011.0 |
| 20260507231155 | 53 | 209 | 1.0 | 2.0 | 0.00 | 0.08 | 0.08 | 56 | 1011.1 |
| 20260507230652 | 53 | 190 | 1.0 | 3.0 | 0.00 | 0.08 | 0.08 | 55 | 1010.6 |
| 20260507230149 | 53 | 203 | 2.0 | 6.0 | 0.00 | 0.08 | 0.08 | 55 | 1010.8 |
| 20260507225649 | 54 | 0 | 1.0 | 3.0 | 0.00 | 0.08 | 0.08 | 56 | 1010.7 |
| 20260507225146 | 55 | 251 | 3.0 | 5.0 | 0.00 | 0.08 | 0.08 | 54 | 1010.6 |
| 20260507224641 | 55 | 166 | 2.0 | 3.0 | 0.00 | 0.08 | 0.08 | 55 | 1010.7 |
| 20260507224138 | 55 | 251 | 4.0 | 7.0 | 0.00 | 0.08 | 0.08 | 53 | 1010.4 |
| 20260507223634 | 55 | 188 | 2.0 | 6.0 | 0.00 | 0.08 | 0.08 | 54 | 1010.4 |
| 20260507223131 | 55 | 148 | 1.0 | 3.0 | 0.00 | 0.08 | 0.08 | 54 | 1010.2 |
| 20260507222628 | 55 | 198 | 4.0 | 6.0 | 0.00 | 0.08 | 0.08 | 53 | 1010.6 |
| 20260507222124 | 55 | 183 | 1.0 | 3.0 | 0.00 | 0.08 | 0.08 | 57 | 1010.7 |
| 20260507221621 | 55 | 157 | 1.0 | 2.0 | 0.00 | 0.08 | 0.08 | 55 | 1010.6 |
| 20260507221117 | 55 | 184 | 1.0 | 1.0 | 0.00 | 0.08 | 0.08 | 56 | 1010.4 |
| 20260507220615 | 55 | 278 | 3.0 | 3.0 | 0.00 | 0.08 | 0.08 | 54 | 1010.6 |
| 20260507220112 | 55 | 229 | 3.0 | 6.0 | 0.00 | 0.08 | 0.08 | 54 | 1010.3 |
| 20260507215608 | 56 | 223 | 7.0 | 8.0 | 0.00 | 0.08 | 0.08 | 53 | 1010.4 |
| 20260507215106 | 56 | 220 | 2.0 | 5.0 | 0.00 | 0.08 | 0.08 | 53 | 1010.0 |
| 20260507214603 | 56 | 261 | 3.0 | 7.0 | 0.00 | 0.08 | 0.08 | 52 | 1010.0 |
| 20260507214059 | 56 | 56 | 3.0 | 3.0 | 0.00 | 0.08 | 0.08 | 54 | 1010.0 |
| 20260507213555 | 56 | 182 | 1.0 | 5.0 | 0.00 | 0.08 | 0.08 | 54 | 1010.1 |
| 20260507213053 | 55 | 193 | 1.0 | 6.0 | 0.00 | 0.08 | 0.08 | 54 | 1010.1 |
| 20260507212548 | 55 | 198 | 3.0 | 5.0 | 0.00 | 0.08 | 0.08 | 54 | 1010.1 |
| 20260507212046 | 56 | 325 | 2.0 | 6.0 | 0.00 | 0.08 | 0.08 | 54 | 1010.0 |
| 20260507211542 | 56 | 191 | 0.0 | 2.0 | 0.00 | 0.08 | 0.08 | 55 | 1009.9 |
| 20260507211038 | 56 | 325 | 3.0 | 5.0 | 0.00 | 0.08 | 0.08 | 53 | 1010.0 |
| 20260507210536 | 56 | 196 | 1.0 | 6.0 | 0.00 | 0.08 | 0.08 | 54 | 1009.7 |
| 20260507210032 | 57 | 141 | 3.0 | 6.0 | 0.00 | 0.08 | 0.08 | 53 | 1010.0 |
| 20260507205529 | 57 | 225 | 3.0 | 5.0 | 0.00 | 0.08 | 0.08 | 52 | 1009.8 |
| 20260507205025 | 57 | 176 | 1.0 | 5.0 | 0.00 | 0.08 | 0.08 | 53 | 1009.9 |
| 20260507204521 | 56 | 178 | 1.0 | 3.0 | 0.00 | 0.08 | 0.08 | 54 | 1009.6 |
| 20260507204019 | 58 | 143 | 2.0 | 8.0 | 0.00 | 0.08 | 0.08 | 50 | 1009.7 |
| 20260507203517 | 57 | 219 | 1.0 | 5.0 | 0.00 | 0.08 | 0.08 | 52 | 1009.7 |
| 20260507203014 | 58 | 192 | 3.0 | 7.0 | 0.00 | 0.08 | 0.08 | 50 | 1009.9 |
| 20260507202510 | 59 | 239 | 5.0 | 8.0 | 0.00 | 0.08 | 0.08 | 51 | 1009.9 |
| 20260507202006 | 58 | 185 | 0.0 | 1.0 | 0.00 | 0.08 | 0.08 | 54 | 1010.0 |
| 20260507201502 | 58 | 202 | 2.0 | 5.0 | 0.00 | 0.08 | 0.08 | 52 | 1009.8 |
| 20260507200958 | 59 | 197 | 2.0 | 8.0 | 0.00 | 0.08 | 0.08 | 52 | 1009.8 |
| 20260507200454 | 59 | 200 | 2.0 | 8.0 | 0.00 | 0.08 | 0.08 | 51 | 1010.0 |
| 20260507195949 | 58 | 193 | 4.0 | 6.0 | 0.00 | 0.08 | 0.08 | 51 | 1010.0 |
| 20260507195448 | 59 | 203 | 4.0 | 7.0 | 0.00 | 0.08 | 0.08 | 52 | 1010.2 |
| 20260507194945 | 58 | 163 | 3.0 | 3.0 | 0.00 | 0.08 | 0.08 | 53 | 1010.3 |
| 20260507194441 | 59 | 250 | 3.0 | 5.0 | 0.00 | 0.08 | 0.08 | 54 | 1010.6 |
| 20260507193937 | 58 | 202 | 3.0 | 7.0 | 0.00 | 0.08 | 0.08 | 52 | 1010.6 |
| 20260507193434 | 58 | 198 | 3.0 | 6.0 | 0.00 | 0.08 | 0.08 | 51 | 1010.2 |
| 20260507192931 | 58 | 254 | 5.0 | 8.0 | 0.00 | 0.08 | 0.08 | 53 | 1010.2 |
| 20260507192427 | 55 | 311 | 2.0 | 5.0 | 0.00 | 0.08 | 0.08 | 59 | 1010.7 |
| 20260507191924 | 55 | 211 | 1.0 | 7.0 | 0.00 | 0.08 | 0.08 | 56 | 1010.2 |
| 20260507191420 | 55 | 277 | 4.0 | 9.0 | 0.00 | 0.08 | 0.08 | 58 | 1010.3 |
| 20260507190917 | 56 | 283 | 4.0 | 8.0 | 0.00 | 0.08 | 0.08 | 56 | 1010.6 |
| 20260507190415 | 57 | 220 | 2.0 | 7.0 | 0.00 | 0.08 | 0.08 | 55 | 1010.7 |
| 20260507185914 | 59 | 215 | 3.0 | 6.0 | 0.00 | 0.08 | 0.08 | 55 | 1010.2 |
| 20260507185410 | 59 | 218 | 2.0 | 5.0 | 0.00 | 0.08 | 0.08 | 53 | 1010.3 |
| 20260507184907 | 59 | 192 | 2.0 | 5.0 | 0.00 | 0.08 | 0.08 | 54 | 1010.6 |
| 20260507184405 | 57 | 190 | 1.0 | 2.0 | 0.00 | 0.08 | 0.08 | 54 | 1010.3 |
| 20260507183902 | 56 | 213 | 3.0 | 6.0 | 0.00 | 0.08 | 0.08 | 58 | 1010.6 |
| 20260507183359 | 56 | 253 | 2.0 | 5.0 | 0.00 | 0.08 | 0.08 | 58 | 1010.6 |
| 20260507182856 | 57 | 197 | 2.0 | 6.0 | 0.00 | 0.08 | 0.08 | 60 | 1010.7 |
| 20260507182352 | 58 | 193 | 1.0 | 6.0 | 0.00 | 0.08 | 0.08 | 60 | 1010.7 |
| 20260507181849 | 57 | 210 | 3.0 | 6.0 | 0.00 | 0.08 | 0.08 | 59 | 1010.8 |
| 20260507181344 | 58 | 187 | 1.0 | 3.0 | 0.00 | 0.08 | 0.08 | 60 | 1010.7 |
| 20260507180842 | 58 | 214 | 3.0 | 6.0 | 0.00 | 0.08 | 0.08 | 59 | 1010.7 |
| 20260507180338 | 57 | 172 | 3.0 | 8.0 | 0.00 | 0.08 | 0.08 | 61 | 1010.8 |
| 20260507175834 | 57 | 265 | 4.0 | 8.0 | 0.00 | 0.08 | 0.08 | 59 | 1010.8 |
| 20260507175331 | 57 | 175 | 3.0 | 5.0 | 0.00 | 0.08 | 0.08 | 62 | 1010.6 |
| 20260507174828 | 57 | 203 | 2.0 | 5.0 | 0.00 | 0.08 | 0.08 | 60 | 1010.8 |
| 20260507174326 | 57 | 249 | 3.0 | 5.0 | 0.00 | 0.08 | 0.08 | 63 | 1010.9 |
| 20260507173823 | 55 | 204 | 3.0 | 3.0 | 0.00 | 0.08 | 0.08 | 66 | 1010.9 |
| 20260507173320 | 54 | 197 | 1.0 | 3.0 | 0.00 | 0.08 | 0.08 | 65 | 1010.8 |
| 20260507172817 | 53 | 197 | 2.0 | 2.0 | 0.00 | 0.08 | 0.08 | 67 | 1011.0 |
| 20260507172314 | 53 | 198 | 2.0 | 2.0 | 0.00 | 0.08 | 0.08 | 68 | 1011.0 |
| 20260507171809 | 53 | 207 | 1.0 | 8.0 | 0.00 | 0.08 | 0.08 | 69 | 1011.2 |
| 20260507171307 | 55 | 249 | 2.0 | 2.0 | 0.00 | 0.08 | 0.08 | 65 | 1011.2 |
| 20260507170803 | 55 | 239 | 3.0 | 6.0 | 0.00 | 0.08 | 0.08 | 64 | 1011.2 |
| 20260507170300 | 55 | 219 | 4.0 | 5.0 | 0.00 | 0.08 | 0.08 | 68 | 1011.3 |
| 20260507165756 | 54 | 186 | 0.0 | 3.0 | 0.00 | 0.08 | 0.08 | 67 | 1011.5 |
| 20260507165252 | 53 | 197 | 0.0 | 5.0 | 0.00 | 0.08 | 0.08 | 67 | 1011.7 |
| 20260507164748 | 53 | 198 | 3.0 | 6.0 | 0.00 | 0.08 | 0.08 | 68 | 1011.6 |
| 20260507164245 | 53 | 199 | 3.0 | 3.0 | 0.00 | 0.08 | 0.08 | 69 | 1011.3 |
| 20260507163742 | 52 | 222 | 3.0 | 5.0 | 0.00 | 0.08 | 0.08 | 71 | 1011.6 |
| 20260507163240 | 52 | 179 | 2.0 | 7.0 | 0.00 | 0.08 | 0.08 | 69 | 1011.6 |
| 20260507162736 | 53 | 190 | 2.0 | 2.0 | 0.00 | 0.08 | 0.08 | 67 | 1011.6 |
| 20260507162232 | 54 | 206 | 3.0 | 7.0 | 0.00 | 0.08 | 0.08 | 66 | 1011.8 |
| 20260507161729 | 53 | 225 | 1.0 | 2.0 | 0.00 | 0.08 | 0.08 | 68 | 1011.8 |
| 20260507161225 | 51 | 278 | 3.0 | 6.0 | 0.00 | 0.08 | 0.08 | 71 | 1011.9 |
| 20260507160721 | 52 | 190 | 1.0 | 5.0 | 0.00 | 0.08 | 0.08 | 69 | 1011.8 |
| 20260507160218 | 53 | 122 | 1.0 | 5.0 | 0.00 | 0.08 | 0.08 | 68 | 1011.8 |
| 20260507155714 | 53 | 252 | 3.0 | 6.0 | 0.00 | 0.08 | 0.08 | 68 | 1011.9 |
| 20260507155210 | 53 | 138 | 2.0 | 3.0 | 0.00 | 0.08 | 0.08 | 71 | 1011.8 |
| 20260507154707 | 52 | 194 | 0.0 | 3.0 | 0.00 | 0.08 | 0.08 | 69 | 1011.9 |
| 20260507154205 | 51 | 181 | 2.0 | 5.0 | 0.00 | 0.08 | 0.08 | 71 | 1012.2 |
| 20260507153701 | 51 | 128 | 1.0 | 6.0 | 0.00 | 0.08 | 0.08 | 70 | 1011.9 |
| 20260507153157 | 53 | 161 | 0.0 | 2.0 | 0.00 | 0.08 | 0.08 | 74 | 1011.9 |
| 20260507152654 | 51 | 101 | 4.0 | 5.0 | 0.00 | 0.08 | 0.08 | 74 | 1011.8 |
| 20260507152150 | 52 | 150 | 0.0 | 3.0 | 0.00 | 0.08 | 0.08 | 74 | 1011.8 |
| 20260507151646 | 51 | 133 | 0.0 | 3.0 | 0.00 | 0.08 | 0.08 | 73 | 1011.9 |
| 20260507151143 | 53 | 196 | 2.0 | 2.0 | 0.00 | 0.08 | 0.08 | 73 | 1011.9 |
| 20260507150640 | 51 | 158 | 0.0 | 2.0 | 0.00 | 0.08 | 0.08 | 80 | 1011.9 |
| 20260507150137 | 50 | 268 | 1.0 | 3.0 | 0.00 | 0.08 | 0.08 | 77 | 1012.3 |
| 20260507145632 | 51 | 112 | 0.0 | 1.0 | 0.00 | 0.08 | 0.08 | 75 | 1012.2 |
| 20260507145130 | 50 | 202 | 0.0 | 5.0 | 0.00 | 0.08 | 0.08 | 75 | 1012.1 |
| 20260507144626 | 50 | 222 | 3.0 | 3.0 | 0.00 | 0.08 | 0.08 | 82 | 1012.2 |
| 20260507144124 | 49 | 188 | 1.0 | 3.0 | 0.00 | 0.08 | 0.08 | 83 | 1012.3 |
| 20260507143620 | 49 | 187 | 1.0 | 2.0 | 0.00 | 0.08 | 0.08 | 86 | 1012.5 |
| 20260507143118 | 47 | 188 | 1.0 | 3.0 | 0.00 | 0.08 | 0.08 | 89 | 1012.7 |
| 20260507142613 | 46 | 182 | 2.0 | 3.0 | 0.00 | 0.08 | 0.08 | 91 | 1012.4 |
| 20260507142110 | 46 | 201 | 2.0 | 3.0 | 0.00 | 0.08 | 0.08 | 95 | 1012.7 |
| 20260507141606 | 46 | 183 | 1.0 | 1.0 | 0.00 | 0.08 | 0.08 | 99 | 1012.9 |
| 20260507141103 | 46 | 195 | 2.0 | 3.0 | 0.00 | 0.08 | 0.08 | 99 | 1012.7 |
| 20260507140600 | 46 | 183 | 1.0 | 1.0 | 0.00 | 0.08 | 0.08 | 99 | 1012.9 |
| 20260507140057 | 46 | 186 | 1.0 | 2.0 | 0.00 | 0.08 | 0.08 | 99 | 1012.9 |
| 20260507135554 | 46 | 197 | 1.0 | 1.0 | 0.00 | 0.08 | 0.08 | 99 | 1012.8 |
| 20260507135052 | 45 | 190 | 0.0 | 1.0 | 0.00 | 0.08 | 0.08 | 99 | 1012.9 |
| 20260507134548 | 46 | 227 | 1.0 | 2.0 | 0.00 | 0.08 | 0.08 | 99 | 1013.1 |
| 20260507134044 | 45 | 189 | 1.0 | 1.0 | 0.00 | 0.08 | 0.08 | 99 | 1013.0 |
| 20260507133540 | 46 | 188 | 0.0 | 0.0 | 0.00 | 0.08 | 0.08 | 99 | 1012.9 |
| 20260507133038 | 46 | 187 | 0.0 | 0.0 | 0.00 | 0.08 | 0.08 | 99 | 1013.1 |
| 20260507132534 | 45 | 187 | 0.0 | 1.0 | 0.00 | 0.08 | 0.08 | 99 | 1013.2 |
| 20260507132031 | 45 | 187 | 0.0 | 1.0 | 0.00 | 0.08 | 0.08 | 99 | 1013.1 |
| 20260507131528 | 45 | 184 | 0.0 | 1.0 | 0.00 | 0.08 | 0.08 | 99 | 1013.0 |
| 20260507131025 | 45 | 189 | 0.0 | 2.0 | 0.00 | 0.08 | 0.08 | 99 | 1013.1 |
| 20260507130522 | 46 | 183 | 0.0 | 1.0 | 0.00 | 0.08 | 0.08 | 99 | 1013.0 |
| 20260507130020 | 45 | 185 | 0.0 | 1.0 | 0.00 | 0.08 | 0.08 | 99 | 1013.0 |
| 20260507125518 | 45 | 182 | 0.0 | 1.0 | 0.00 | 0.08 | 0.08 | 99 | 1013.2 |
| 20260507125015 | 45 | 187 | 1.0 | 2.0 | 0.00 | 0.08 | 0.08 | 99 | 1013.1 |
| 20260507124512 | 44 | 189 | 0.0 | 1.0 | 0.00 | 0.08 | 0.08 | 99 | 1013.1 |
| 20260507124010 | 45 | 187 | 1.0 | 1.0 | 0.00 | 0.08 | 0.08 | 99 | 1013.1 |
| 20260507123507 | 44 | 182 | 0.0 | 0.0 | 0.00 | 0.08 | 0.08 | 99 | 1013.3 |
| 20260507123003 | 44 | 183 | 0.0 | 1.0 | 0.00 | 0.08 | 0.08 | 99 | 1013.4 |
| 20260507122459 | 44 | 184 | 1.0 | 1.0 | 0.00 | 0.08 | 0.08 | 99 | 1013.0 |
| 20260507121955 | 44 | 186 | 0.0 | 0.0 | 0.00 | 0.08 | 0.08 | 99 | 1013.3 |
| 20260507121451 | 44 | 187 | 0.0 | 1.0 | 0.00 | 0.08 | 0.08 | 99 | 1013.4 |
| 20260507120947 | 44 | 186 | 0.0 | 0.0 | 0.00 | 0.08 | 0.08 | 99 | 1013.3 |
| 20260507120443 | 44 | 186 | 0.0 | 1.0 | 0.00 | 0.08 | 0.08 | 99 | 1013.2 |
| 20260507115940 | 44 | 185 | 0.0 | 0.0 | 0.00 | 0.08 | 0.08 | 99 | 1013.0 |
| 20260507115436 | 44 | 185 | 0.0 | 0.0 | 0.00 | 0.08 | 0.08 | 99 | 1013.1 |
| 20260507114932 | 44 | 185 | 0.0 | 0.0 | 0.00 | 0.08 | 0.08 | 99 | 1013.0 |
| 20260507114429 | 44 | 186 | 0.0 | 1.0 | 0.00 | 0.08 | 0.08 | 99 | 1013.1 |
| 20260507113926 | 44 | 186 | 0.0 | 0.0 | 0.00 | 0.08 | 0.08 | 99 | 1013.2 |
| 20260507113423 | 44 | 186 | 0.0 | 1.0 | 0.00 | 0.08 | 0.08 | 99 | 1012.8 |
| 20260507112921 | 44 | 186 | 0.0 | 0.0 | 0.00 | 0.08 | 0.08 | 99 | 1012.7 |
| 20260507112418 | 44 | 186 | 0.0 | 0.0 | 0.00 | 0.08 | 0.08 | 99 | 1012.7 |
| 20260507111915 | 44 | 186 | 0.0 | 0.0 | 0.00 | 0.08 | 0.08 | 99 | 1012.3 |
| 20260507111412 | 44 | 186 | 0.0 | 0.0 | 0.00 | 0.08 | 0.08 | 99 | 1012.4 |
| 20260507110908 | 44 | 186 | 0.0 | 0.0 | 0.00 | 0.08 | 0.08 | 99 | 1012.7 |
| 20260507110404 | 44 | 186 | 0.0 | 0.0 | 0.00 | 0.08 | 0.08 | 99 | 1012.4 |
| 20260507105901 | 44 | 186 | 0.0 | 0.0 | 0.00 | 0.08 | 0.08 | 99 | 1012.4 |
| 20260507105358 | 44 | 186 | 0.0 | 0.0 | 0.00 | 0.08 | 0.08 | 99 | 1012.4 |
| 20260507104855 | 43 | 186 | 0.0 | 0.0 | 0.00 | 0.08 | 0.08 | 99 | 1012.1 |
| 20260507104351 | 44 | 186 | 0.0 | 1.0 | 0.00 | 0.08 | 0.08 | 99 | 1012.1 |
| 20260507103847 | 44 | 187 | 0.0 | 0.0 | 0.00 | 0.08 | 0.08 | 99 | 1012.1 |
| 20260507103344 | 44 | 186 | 0.0 | 0.0 | 0.00 | 0.08 | 0.08 | 99 | 1012.3 |
| 20260507102841 | 44 | 186 | 0.0 | 1.0 | 0.00 | 0.08 | 0.08 | 99 | 1012.1 |
| 20260507102337 | 43 | 186 | 0.0 | 0.0 | 0.00 | 0.08 | 0.08 | 99 | 1012.4 |
| 20260507101834 | 44 | 188 | 1.0 | 1.0 | 0.00 | 0.08 | 0.08 | 99 | 1012.2 |
| 20260507101334 | 44 | 189 | 0.0 | 1.0 | 0.00 | 0.08 | 0.08 | 99 | 1012.4 |
| 20260507100831 | 44 | 186 | 0.0 | 0.0 | 0.00 | 0.08 | 0.08 | 99 | 1012.3 |
| 20260507100329 | 44 | 186 | 0.0 | 0.0 | 0.00 | 0.08 | 0.08 | 99 | 1012.2 |
| 20260507095827 | 43 | 186 | 0.0 | 0.0 | 0.00 | 0.08 | 0.08 | 99 | 1012.2 |
| 20260507095323 | 44 | 186 | 0.0 | 1.0 | 0.00 | 0.08 | 0.08 | 99 | 1012.2 |
| 20260507094821 | 44 | 186 | 1.0 | 1.0 | 0.00 | 0.08 | 0.08 | 99 | 1011.9 |
| 20260507094317 | 44 | 186 | 0.0 | 0.0 | 0.00 | 0.08 | 0.08 | 99 | 1011.8 |
| 20260507093814 | 44 | 186 | 0.0 | 0.0 | 0.00 | 0.08 | 0.08 | 99 | 1012.2 |
| 20260507093312 | 44 | 186 | 0.0 | 0.0 | 0.00 | 0.08 | 0.08 | 99 | 1011.7 |
| 20260507092810 | 44 | 186 | 0.0 | 0.0 | 0.00 | 0.08 | 0.08 | 99 | 1011.8 |
| 20260507092307 | 44 | 185 | 0.0 | 1.0 | 0.00 | 0.08 | 0.08 | 99 | 1012.1 |
| 20260507091803 | 44 | 184 | 0.0 | 0.0 | 0.00 | 0.08 | 0.08 | 99 | 1012.1 |
| 20260507091259 | 44 | 187 | 0.0 | 1.0 | 0.00 | 0.08 | 0.08 | 99 | 1012.1 |
| 20260507090759 | 44 | 187 | 0.0 | 1.0 | 0.00 | 0.08 | 0.08 | 99 | 1011.9 |
| 20260507090256 | 44 | 187 | 1.0 | 1.0 | 0.00 | 0.08 | 0.08 | 99 | 1011.9 |
| 20260507085754 | 44 | 185 | 1.0 | 2.0 | 0.00 | 0.08 | 0.08 | 99 | 1012.3 |
| 20260507085250 | 44 | 186 | 0.0 | 1.0 | 0.00 | 0.08 | 0.08 | 99 | 1012.2 |
| 20260507084748 | 44 | 189 | 0.0 | 2.0 | 0.00 | 0.08 | 0.08 | 99 | 1012.1 |
| 20260507084244 | 44 | 186 | 1.0 | 1.0 | 0.00 | 0.08 | 0.08 | 99 | 1011.9 |
| 20260507083741 | 44 | 195 | 0.0 | 1.0 | 0.00 | 0.08 | 0.08 | 99 | 1011.7 |
| 20260507083238 | 44 | 192 | 1.0 | 3.0 | 0.00 | 0.08 | 0.08 | 99 | 1011.9 |
| 20260507082734 | 44 | 185 | 0.0 | 1.0 | 0.00 | 0.08 | 0.08 | 99 | 1012.3 |
| 20260507082230 | 44 | 194 | 2.0 | 2.0 | 0.05 | 0.08 | 0.08 | 99 | 1012.2 |
| 20260507081727 | 44 | 185 | 0.0 | 2.0 | 0.05 | 0.08 | 0.08 | 99 | 1012.1 |
| 20260507081223 | 44 | 273 | 2.0 | 3.0 | 0.00 | 0.07 | 0.07 | 99 | 1012.2 |
| 20260507080720 | 44 | 324 | 3.0 | 6.0 | 0.00 | 0.07 | 0.07 | 99 | 1012.2 |
| 20260507080216 | 45 | 214 | 2.0 | 2.0 | 0.07 | 0.07 | 0.07 | 99 | 1012.3 |
| 20260507075711 | 45 | 194 | 1.0 | 3.0 | 0.07 | 0.07 | 0.07 | 99 | 1012.1 |
| 20260507075208 | 45 | 181 | 0.0 | 2.0 | 0.00 | 0.06 | 0.06 | 99 | 1012.1 |
| 20260507074704 | 46 | 180 | 3.0 | 3.0 | 0.00 | 0.06 | 0.06 | 99 | 1012.2 |
| 20260507074203 | 45 | 183 | 0.0 | 1.0 | 0.00 | 0.06 | 0.06 | 99 | 1012.1 |
| 20260507073659 | 45 | 204 | 1.0 | 2.0 | 0.07 | 0.06 | 0.06 | 99 | 1012.1 |
| 20260507073155 | 45 | 199 | 2.0 | 2.0 | 0.07 | 0.06 | 0.06 | 99 | 1011.8 |
| 20260507072653 | 45 | 192 | 1.0 | 1.0 | 0.00 | 0.05 | 0.05 | 99 | 1011.8 |
| 20260507072150 | 45 | 187 | 0.0 | 1.0 | 0.00 | 0.05 | 0.05 | 99 | 1011.8 |
| 20260507071648 | 45 | 184 | 0.0 | 1.0 | 0.00 | 0.05 | 0.05 | 99 | 1011.7 |
| 20260507071144 | 45 | 182 | 0.0 | 1.0 | 0.00 | 0.05 | 0.05 | 99 | 1012.1 |
| 20260507070641 | 46 | 185 | 0.0 | 0.0 | 0.00 | 0.05 | 0.05 | 99 | 1011.9 |
| 20260507070138 | 45 | 185 | 0.0 | 1.0 | 0.00 | 0.05 | 0.05 | 99 | 1011.8 |
| 20260507065634 | 46 | 187 | 1.0 | 1.0 | 0.00 | 0.05 | 0.05 | 99 | 1011.9 |
| 20260507065131 | 46 | 187 | 0.0 | 0.0 | 0.00 | 0.05 | 0.05 | 99 | 1011.7 |
| 20260507064629 | 46 | 189 | 1.0 | 1.0 | 0.00 | 0.05 | 0.05 | 99 | 1011.9 |
| 20260507064127 | 46 | 186 | 1.0 | 1.0 | 0.00 | 0.05 | 0.05 | 99 | 1012.2 |
| 20260507063624 | 46 | 186 | 0.0 | 0.0 | 0.00 | 0.05 | 0.05 | 99 | 1011.9 |
| 20260507063121 | 46 | 192 | 0.0 | 2.0 | 0.05 | 0.05 | 0.05 | 99 | 1012.1 |
| 20260507062618 | 46 | 191 | 0.0 | 0.0 | 0.05 | 0.05 | 0.05 | 99 | 1011.9 |
| 20260507062116 | 46 | 195 | 0.0 | 0.0 | 0.00 | 0.04 | 0.04 | 99 | 1012.1 |
| 20260507061613 | 46 | 201 | 0.0 | 0.0 | 0.07 | 0.04 | 0.04 | 99 | 1011.9 |
| 20260507061111 | 46 | 183 | 0.0 | 0.0 | 0.00 | 0.03 | 0.03 | 99 | 1012.1 |
| 20260507060609 | 46 | 183 | 0.0 | 0.0 | 0.00 | 0.03 | 0.03 | 99 | 1012.2 |
| 20260507060105 | 46 | 187 | 0.0 | 0.0 | 0.05 | 0.03 | 0.03 | 99 | 1012.3 |
| 20260507055600 | 46 | 183 | 0.0 | 0.0 | 0.05 | 0.03 | 0.03 | 99 | 1012.2 |
| 20260507055057 | 46 | 183 | 0.0 | 0.0 | 0.00 | 0.02 | 0.02 | 99 | 1012.3 |
| 20260507054553 | 46 | 183 | 0.0 | 0.0 | 0.00 | 0.02 | 0.02 | 99 | 1012.5 |
| 20260507054050 | 46 | 184 | 0.0 | 0.0 | 0.00 | 0.02 | 0.02 | 99 | 1012.7 |
| 20260507053548 | 46 | 183 | 0.0 | 0.0 | 0.00 | 0.02 | 0.02 | 99 | 1012.6 |
| 20260507053046 | 46 | 183 | 0.0 | 0.0 | 0.00 | 0.02 | 0.02 | 99 | 1012.6 |
| 20260507052544 | 46 | 186 | 0.0 | 0.0 | 0.00 | 0.02 | 0.02 | 99 | 1012.5 |
| 20260507052040 | 46 | 186 | 0.0 | 0.0 | 0.00 | 0.02 | 0.02 | 99 | 1012.7 |
| 20260507051538 | 46 | 186 | 0.0 | 0.0 | 0.00 | 0.02 | 0.02 | 99 | 1012.8 |
| 20260507051035 | 46 | 187 | 0.0 | 1.0 | 0.00 | 0.02 | 0.02 | 99 | 1012.6 |
| 20260507050531 | 46 | 184 | 0.0 | 0.0 | 0.00 | 0.02 | 0.02 | 99 | 1012.6 |
| 20260507050028 | 46 | 184 | 0.0 | 1.0 | 0.07 | 0.02 | 0.02 | 99 | 1012.8 |
| 20260507045524 | 46 | 187 | 0.0 | 1.0 | 0.07 | 0.02 | 0.02 | 99 | 1013.1 |
| 20260507045022 | 46 | 184 | 0.0 | 0.0 | 0.00 | 0.01 | 0.01 | 99 | 1012.7 |
| 20260507044518 | 46 | 183 | 0.0 | 0.0 | 0.00 | 0.01 | 0.01 | 99 | 1012.6 |
| 20260507044015 | 46 | 183 | 0.0 | 0.0 | 0.00 | 0.01 | 0.01 | 99 | 1012.6 |
| 20260507043511 | 46 | 178 | 0.0 | 1.0 | 0.00 | 0.01 | 0.01 | 99 | 1012.7 |
| 20260507043008 | 46 | 186 | 0.0 | 0.0 | 0.00 | 0.01 | 0.01 | 99 | 1012.7 |
| 20260507042504 | 47 | 195 | 0.0 | 2.0 | 0.05 | 0.01 | 0.01 | 99 | 1012.8 |
| 20260507042000 | 46 | 181 | 0.0 | 0.0 | 0.05 | 0.01 | 0.01 | 99 | 1012.3 |
| 20260507041457 | 46 | 184 | 0.0 | 0.0 | 0.00 | 0.00 | 0.00 | 99 | 1012.3 |
| 20260507040954 | 46 | 180 | 0.0 | 1.0 | 0.00 | 0.00 | 0.00 | 99 | 1012.3 |
| 20260507040449 | 46 | 179 | 1.0 | 2.0 | 0.00 | 0.00 | 0.00 | 99 | 1012.3 |
| 20260507035945 | 46 | 164 | 0.0 | 1.0 | 0.00 | 1.09 | 1.09 | 99 | 1012.6 |
| 20260507035442 | 46 | 165 | 1.0 | 2.0 | 0.00 | 1.09 | 1.09 | 99 | 1012.5 |
| 20260507034939 | 46 | 182 | 0.0 | 0.0 | 0.00 | 1.09 | 1.09 | 99 | 1012.4 |
| 20260507034436 | 47 | 172 | 0.0 | 0.0 | 0.00 | 1.09 | 1.09 | 99 | 1012.4 |